sensor_id;sensor_type;location;lat;lon;timestamp;pressure;altitude;pressure_sealevel;temperature;humidity
30463;BME280;17256;43.618;25.336;2023-03-26T00:01:42;99506.50;;;10.82;100.00
30463;BME280;17256;43.618;25.336;2023-03-26T00:04:11;99602.31;;;11.33;100.00
30463;BME280;17256;43.618;25.336;2023-03-26T00:06:38;99523.97;;;10.87;100.00
30463;BME280;17256;43.618;25.336;2023-03-26T00:09:08;99807.59;;;12.44;100.00
30463;BME280;17256;43.618;25.336;2023-03-26T00:12:10;99414.84;;;10.21;100.00
30463;BME280;17256;43.618;25.336;2023-03-26T00:14:43;99510.81;;;10.53;100.00
30463;BME280;17256;43.618;25.336;2023-03-26T00:17:30;99634.53;;;11.26;100.00
30463;BME280;17256;43.618;25.336;2023-03-26T00:19:56;99661.94;;;11.32;100.00
30463;BME280;17256;43.618;25.336;2023-03-26T00:22:35;99735.41;;;11.87;100.00
30463;BME280;17256;43.618;25.336;2023-03-26T00:25:07;99477.25;;;10.01;100.00
30463;BME280;17256;43.618;25.336;2023-03-26T00:27:34;99881.16;;;12.37;100.00
30463;BME280;17256;43.618;25.336;2023-03-26T00:30:12;99948.91;;;12.81;100.00
30463;BME280;17256;43.618;25.336;2023-03-26T00:32:47;99680.13;;;11.08;100.00
30463;BME280;17256;43.618;25.336;2023-03-26T00:36:06;99975.22;;;12.77;100.00
30463;BME280;17256;43.618;25.336;2023-03-26T00:38:37;99506.66;;;9.87;100.00
30463;BME280;17256;43.618;25.336;2023-03-26T00:45:31;99646.63;;;10.75;100.00
30463;BME280;17256;43.618;25.336;2023-03-26T00:48:35;99745.31;;;11.26;100.00
30463;BME280;17256;43.618;25.336;2023-03-26T00:51:49;99998.66;;;12.68;100.00
30463;BME280;17256;43.618;25.336;2023-03-26T00:54:31;99559.81;;;9.93;100.00
30463;BME280;17256;43.618;25.336;2023-03-26T00:57:38;99994.47;;;12.58;100.00
30463;BME280;17256;43.618;25.336;2023-03-26T01:00:33;99994.47;;;12.58;100.00
30463;BME280;17256;43.618;25.336;2023-03-26T01:06:41;99752.75;;;10.94;100.00
30463;BME280;17256;43.618;25.336;2023-03-26T01:12:46;99989.50;;;12.49;100.00
30463;BME280;17256;43.618;25.336;2023-03-26T01:16:51;99999.22;;;12.51;100.00
30463;BME280;17256;43.618;25.336;2023-03-26T01:19:56;99529.56;;;9.68;100.00
30463;BME280;17256;43.618;25.336;2023-03-26T01:22:53;99713.59;;;10.74;100.00
30463;BME280;17256;43.618;25.336;2023-03-26T01:25:36;99474.72;;;9.36;100.00
30463;BME280;17256;43.618;25.336;2023-03-26T01:28:20;99818.16;;;11.42;100.00
30463;BME280;17256;43.618;25.336;2023-03-26T01:31:29;99946.63;;;12.16;100.00
30463;BME280;17256;43.618;25.336;2023-03-26T01:46:21;99767.63;;;11.12;100.00
30463;BME280;17256;43.618;25.336;2023-03-26T01:49:03;99521.38;;;9.61;100.00
30463;BME280;17256;43.618;25.336;2023-03-26T01:52:18;99977.09;;;12.40;100.00
30463;BME280;17256;43.618;25.336;2023-03-26T01:54:58;99720.22;;;10.66;100.00
30463;BME280;17256;43.618;25.336;2023-03-26T01:58:24;99975.19;;;12.40;100.00
30463;BME280;17256;43.618;25.336;2023-03-26T02:02:08;99743.81;;;10.74;100.00
30463;BME280;17256;43.618;25.336;2023-03-26T02:08:23;99984.50;;;12.39;100.00
30463;BME280;17256;43.618;25.336;2023-03-26T02:11:21;99799.44;;;11.26;100.00
30463;BME280;17256;43.618;25.336;2023-03-26T02:17:41;100022.50;;;12.30;100.00
30463;BME280;17256;43.618;25.336;2023-03-26T02:21:14;100007.88;;;12.30;100.00
30463;BME280;17256;43.618;25.336;2023-03-26T02:24:38;100010.63;;;12.30;100.00
30463;BME280;17256;43.618;25.336;2023-03-26T02:28:10;99852.84;;;11.36;100.00
30463;BME280;17256;43.618;25.336;2023-03-26T02:31:46;100003.69;;;12.27;100.00
30463;BME280;17256;43.618;25.336;2023-03-26T02:35:28;99983.66;;;12.14;100.00
30463;BME280;17256;43.618;25.336;2023-03-26T02:38:59;100000.75;;;12.22;100.00
30463;BME280;17256;43.618;25.336;2023-03-26T02:42:19;99996.31;;;12.21;100.00
30463;BME280;17256;43.618;25.336;2023-03-26T02:49:02;100010.25;;;12.26;100.00
30463;BME280;17256;43.618;25.336;2023-03-26T02:52:26;99847.28;;;11.18;100.00
30463;BME280;17256;43.618;25.336;2023-03-26T02:55:44;99599.19;;;9.60;100.00
30463;BME280;17256;43.618;25.336;2023-03-26T02:59:03;99580.03;;;9.53;100.00
30463;BME280;17256;43.618;25.336;2023-03-26T03:02:14;99645.53;;;9.75;100.00
30463;BME280;17256;43.618;25.336;2023-03-26T03:04:51;99832.94;;;11.09;100.00
30463;BME280;17256;43.618;25.336;2023-03-26T03:07:24;99491.13;;;8.98;100.00
30463;BME280;17256;43.618;25.336;2023-03-26T03:10:11;100018.19;;;12.16;100.00
30463;BME280;17256;43.618;25.336;2023-03-26T03:13:55;100023.63;;;12.23;100.00
30463;BME280;17256;43.618;25.336;2023-03-26T03:16:45;99886.38;;;11.20;100.00
30463;BME280;17256;43.618;25.336;2023-03-26T03:19:17;99958.41;;;11.67;100.00
30463;BME280;17256;43.618;25.336;2023-03-26T03:22:06;100026.34;;;11.98;100.00
30463;BME280;17256;43.618;25.336;2023-03-26T03:25:05;100016.66;;;11.95;100.00
30463;BME280;17256;43.618;25.336;2023-03-26T03:28:51;99921.03;;;11.21;100.00
30463;BME280;17256;43.618;25.336;2023-03-26T03:50:40;99777.00;;;10.14;100.00
30463;BME280;17256;43.618;25.336;2023-03-26T03:53:51;99510.56;;;8.63;100.00
30463;BME280;17256;43.618;25.336;2023-03-26T03:57:26;100026.25;;;11.80;100.00
30463;BME280;17256;43.618;25.336;2023-03-26T04:13:07;100054.41;;;11.75;100.00
30463;BME280;17256;43.618;25.336;2023-03-26T04:25:24;100045.56;;;11.66;100.00
30463;BME280;17256;43.618;25.336;2023-03-26T04:33:38;100037.56;;;11.58;100.00
30463;BME280;17256;43.618;25.336;2023-03-26T04:44:17;100053.19;;;11.64;100.00
30463;BME280;17256;43.618;25.336;2023-03-26T04:51:59;100073.56;;;11.50;100.00
30463;BME280;17256;43.618;25.336;2023-03-26T04:55:54;99963.09;;;10.64;100.00
30463;BME280;17256;43.618;25.336;2023-03-26T05:46:18;99700.03;;;8.66;100.00
30463;BME280;17256;43.618;25.336;2023-03-26T05:50:32;100140.88;;;11.41;100.00
30463;BME280;17256;43.618;25.336;2023-03-26T05:54:21;99873.50;;;9.59;100.00
30463;BME280;17256;43.618;25.336;2023-03-26T06:11:34;99864.16;;;11.53;100.00
30463;BME280;17256;43.618;25.336;2023-03-26T06:15:03;99645.31;;;10.53;100.00
30463;BME280;17256;43.618;25.336;2023-03-26T06:18:18;99770.13;;;11.20;100.00
30463;BME280;17256;43.618;25.336;2023-03-26T06:28:44;100158.53;;;13.84;97.17
30463;BME280;17256;43.618;25.336;2023-03-26T06:32:45;100165.59;;;13.80;99.37
30463;BME280;17256;43.618;25.336;2023-03-26T07:03:02;99808.94;;;12.71;86.21
30463;BME280;17256;43.618;25.336;2023-03-26T07:05:54;100182.91;;;15.19;85.28
30463;BME280;17256;43.618;25.336;2023-03-26T07:17:22;99758.72;;;12.39;81.69
30463;BME280;17256;43.618;25.336;2023-03-26T07:20:16;100008.16;;;14.16;81.28
30463;BME280;17256;43.618;25.336;2023-03-26T07:33:17;100114.22;;;15.39;74.96
30463;BME280;17256;43.618;25.336;2023-03-26T07:36:38;99969.41;;;14.58;71.71
30463;BME280;17256;43.618;25.336;2023-03-26T07:39:53;99907.88;;;13.93;71.16
30463;BME280;17256;43.618;25.336;2023-03-26T07:45:58;100132.13;;;15.48;71.36
30463;BME280;17256;43.618;25.336;2023-03-26T07:51:41;99927.16;;;14.46;68.56
30463;BME280;17256;43.618;25.336;2023-03-26T07:54:50;100136.44;;;16.08;67.31
30463;BME280;17256;43.618;25.336;2023-03-26T08:03:46;100204.84;;;16.47;66.39
30463;BME280;17256;43.618;25.336;2023-03-26T08:06:46;99942.63;;;15.11;65.21
30463;BME280;17256;43.618;25.336;2023-03-26T08:09:41;100216.47;;;17.06;64.00
30463;BME280;17256;43.618;25.336;2023-03-26T08:12:51;100059.84;;;15.85;63.67
30463;BME280;17256;43.618;25.336;2023-03-26T08:18:52;99945.13;;;14.60;65.45
30463;BME280;17256;43.618;25.336;2023-03-26T08:21:45;100224.41;;;16.41;66.10
30463;BME280;17256;43.618;25.336;2023-03-26T08:24:19;100063.53;;;15.50;66.87
30463;BME280;17256;43.618;25.336;2023-03-26T08:32:18;99951.72;;;14.94;64.37
30463;BME280;17256;43.618;25.336;2023-03-26T08:34:57;99947.38;;;14.98;65.13
30463;BME280;17256;43.618;25.336;2023-03-26T08:37:27;99817.13;;;14.43;65.66
30463;BME280;17256;43.618;25.336;2023-03-26T08:39:56;99745.78;;;13.88;62.68
30463;BME280;17256;43.618;25.336;2023-03-26T09:11:57;100210.47;;;17.81;59.55
30463;BME280;17256;43.618;25.336;2023-03-26T09:29:27;100185.00;;;18.33;57.92
30463;BME280;17256;43.618;25.336;2023-03-26T09:38:17;99976.91;;;16.74;54.77
30463;BME280;17256;43.618;25.336;2023-03-26T09:40:56;99739.69;;;15.28;55.05
30463;BME280;17256;43.618;25.336;2023-03-26T09:47:08;100128.16;;;18.19;56.00
30463;BME280;17256;43.618;25.336;2023-03-26T09:53:22;100166.34;;;18.56;54.98
30463;BME280;17256;43.618;25.336;2023-03-26T09:56:11;100161.22;;;18.42;55.78
30463;BME280;17256;43.618;25.336;2023-03-26T10:01:56;100159.56;;;18.47;53.82
30463;BME280;17256;43.618;25.336;2023-03-26T10:07:47;99761.72;;;16.29;54.79
30463;BME280;17256;43.618;25.336;2023-03-26T10:32:15;99763.09;;;16.70;50.60
30463;BME280;17256;43.618;25.336;2023-03-26T10:35:03;99875.53;;;16.83;50.36
30463;BME280;17256;43.618;25.336;2023-03-26T10:40:36;99861.81;;;17.20;48.43
30463;BME280;17256;43.618;25.336;2023-03-26T10:55:54;100077.03;;;18.52;52.50
30463;BME280;17256;43.618;25.336;2023-03-26T10:58:28;99836.94;;;16.59;50.95
30463;BME280;17256;43.618;25.336;2023-03-26T11:01:16;99946.38;;;17.12;51.25
30463;BME280;17256;43.618;25.336;2023-03-26T11:04:23;100025.88;;;17.67;51.36
30463;BME280;17256;43.618;25.336;2023-03-26T11:10:11;99866.41;;;16.66;51.93
30463;BME280;17256;43.618;25.336;2023-03-26T11:15:40;99830.81;;;16.57;52.70
30463;BME280;17256;43.618;25.336;2023-03-26T11:21:04;99744.00;;;16.52;52.04
30463;BME280;17256;43.618;25.336;2023-03-26T11:26:55;100097.44;;;18.90;51.28
30463;BME280;17256;43.618;25.336;2023-03-26T11:29:45;100076.19;;;19.16;50.29
30463;BME280;17256;43.618;25.336;2023-03-26T11:32:18;100002.50;;;18.49;51.00
30463;BME280;17256;43.618;25.336;2023-03-26T11:35:00;99873.56;;;17.81;50.87
30463;BME280;17256;43.618;25.336;2023-03-26T11:37:42;99816.84;;;17.45;51.25
30463;BME280;17256;43.618;25.336;2023-03-26T11:40:17;99885.16;;;17.73;50.99
30463;BME280;17256;43.618;25.336;2023-03-26T11:42:46;100019.97;;;18.77;50.96
30463;BME280;17256;43.618;25.336;2023-03-26T11:45:26;99685.28;;;16.82;49.47
30463;BME280;17256;43.618;25.336;2023-03-26T11:48:07;99808.13;;;17.63;48.95
30463;BME280;17256;43.618;25.336;2023-03-26T11:50:40;99929.34;;;18.43;47.89
30463;BME280;17256;43.618;25.336;2023-03-26T11:53:19;99860.75;;;17.80;47.13
30463;BME280;17256;43.618;25.336;2023-03-26T12:04:44;99824.09;;;17.78;47.03
30463;BME280;17256;43.618;25.336;2023-03-26T12:07:17;100048.53;;;19.04;47.04
30463;BME280;17256;43.618;25.336;2023-03-26T12:12:59;99830.72;;;17.72;46.50
30463;BME280;17256;43.618;25.336;2023-03-26T12:15:41;99819.06;;;17.75;46.40
30463;BME280;17256;43.618;25.336;2023-03-26T12:18:25;99682.31;;;16.61;46.16
30463;BME280;17256;43.618;25.336;2023-03-26T12:21:15;99863.97;;;17.99;45.98
30463;BME280;17256;43.618;25.336;2023-03-26T12:24:02;99890.25;;;18.18;45.77
30463;BME280;17256;43.618;25.336;2023-03-26T12:26:41;99675.25;;;16.76;46.19
30463;BME280;17256;43.618;25.336;2023-03-26T12:29:36;100025.81;;;19.17;45.68
30463;BME280;17256;43.618;25.336;2023-03-26T12:32:14;99819.09;;;17.80;46.11
30463;BME280;17256;43.618;25.336;2023-03-26T12:34:41;99728.19;;;17.65;46.61
30463;BME280;17256;43.618;25.336;2023-03-26T12:37:36;99652.69;;;17.31;46.21
30463;BME280;17256;43.618;25.336;2023-03-26T12:40:30;100020.84;;;19.29;46.27
30463;BME280;17256;43.618;25.336;2023-03-26T12:43:02;99877.81;;;18.31;47.14
30463;BME280;17256;43.618;25.336;2023-03-26T12:45:41;99525.63;;;16.22;47.57
30463;BME280;17256;43.618;25.336;2023-03-26T12:48:15;99749.19;;;17.56;47.61
30463;BME280;17256;43.618;25.336;2023-03-26T12:53:55;99708.88;;;17.43;45.35
30463;BME280;17256;43.618;25.336;2023-03-26T12:56:39;99851.97;;;18.30;45.65
30463;BME280;17256;43.618;25.336;2023-03-26T12:59:19;100008.66;;;19.41;45.04
30463;BME280;17256;43.618;25.336;2023-03-26T13:16:22;99996.81;;;19.60;44.43
30463;BME280;17256;43.618;25.336;2023-03-26T13:18:55;99728.94;;;17.93;44.75
30463;BME280;17256;43.618;25.336;2023-03-26T13:31:20;99856.06;;;18.60;44.52
30463;BME280;17256;43.618;25.336;2023-03-26T13:45:43;100006.66;;;19.31;41.43
30463;BME280;17256;43.618;25.336;2023-03-26T13:48:27;99737.69;;;17.69;40.17
30463;BME280;17256;43.618;25.336;2023-03-26T13:51:11;99964.88;;;19.21;40.54
30463;BME280;17256;43.618;25.336;2023-03-26T13:53:43;99810.75;;;18.12;39.71
30463;BME280;17256;43.618;25.336;2023-03-26T13:56:16;99781.22;;;18.01;40.48
30463;BME280;17256;43.618;25.336;2023-03-26T13:59:00;99696.34;;;17.41;40.01
30463;BME280;17256;43.618;25.336;2023-03-26T14:01:45;99882.16;;;18.59;40.45
30463;BME280;17256;43.618;25.336;2023-03-26T14:04:32;99835.81;;;18.22;40.88
30463;BME280;17256;43.618;25.336;2023-03-26T14:10:30;99815.75;;;18.10;41.56
30463;BME280;17256;43.618;25.336;2023-03-26T14:13:28;99972.63;;;19.09;41.46
30463;BME280;17256;43.618;25.336;2023-03-26T14:16:15;99974.81;;;19.06;40.08
30463;BME280;17256;43.618;25.336;2023-03-26T14:19:39;99810.69;;;18.07;39.80
30463;BME280;17256;43.618;25.336;2023-03-26T14:31:32;99958.94;;;19.07;39.39
30463;BME280;17256;43.618;25.336;2023-03-26T14:47:27;99962.69;;;18.81;40.78
30463;BME280;17256;43.618;25.336;2023-03-26T14:54:22;99572.91;;;16.15;40.33
30463;BME280;17256;43.618;25.336;2023-03-26T14:57:45;99955.28;;;18.54;39.25
30463;BME280;17256;43.618;25.336;2023-03-26T15:07:08;99956.72;;;18.62;39.69
30463;BME280;17256;43.618;25.336;2023-03-26T15:30:11;99648.59;;;16.21;40.39
30463;BME280;17256;43.618;25.336;2023-03-26T15:36:04;99960.66;;;17.97;41.47
30463;BME280;17256;43.618;25.336;2023-03-26T15:53:04;99949.50;;;17.43;43.01
30463;BME280;17256;43.618;25.336;2023-03-26T15:58:30;99771.63;;;16.25;43.49
30463;BME280;17256;43.618;25.336;2023-03-26T16:01:37;99949.78;;;17.19;44.06
30463;BME280;17256;43.618;25.336;2023-03-26T16:04:44;99789.84;;;15.99;43.86
30463;BME280;17256;43.618;25.336;2023-03-26T16:15:37;99848.91;;;16.05;44.43
30463;BME280;17256;43.618;25.336;2023-03-26T16:32:40;99935.59;;;15.88;45.21
30463;BME280;17256;43.618;25.336;2023-03-26T16:37:49;99976.22;;;15.99;45.23
30463;BME280;17256;43.618;25.336;2023-03-26T16:43:45;99975.47;;;15.87;45.64
30463;BME280;17256;43.618;25.336;2023-03-26T17:04:16;99987.66;;;15.34;47.04
30463;BME280;17256;43.618;25.336;2023-03-26T17:07:11;99984.44;;;15.37;47.18
30463;BME280;17256;43.618;25.336;2023-03-26T17:10:13;99989.16;;;15.25;47.27
30463;BME280;17256;43.618;25.336;2023-03-26T17:16:34;99920.16;;;14.55;47.42
30463;BME280;17256;43.618;25.336;2023-03-26T17:22:38;99656.38;;;12.96;47.45
30463;BME280;17256;43.618;25.336;2023-03-26T17:25:36;99781.66;;;13.65;46.90
30463;BME280;17256;43.618;25.336;2023-03-26T17:37:34;100008.19;;;14.87;47.64
30463;BME280;17256;43.618;25.336;2023-03-26T17:49:14;100012.28;;;14.96;47.77
30463;BME280;17256;43.618;25.336;2023-03-26T17:58:49;100011.59;;;14.65;48.38
30463;BME280;17256;43.618;25.336;2023-03-26T18:02:39;99595.44;;;12.09;47.97
30463;BME280;17256;43.618;25.336;2023-03-26T18:12:09;100005.09;;;14.48;48.62
30463;BME280;17256;43.618;25.336;2023-03-26T18:15:20;100011.72;;;14.47;48.82
30463;BME280;17256;43.618;25.336;2023-03-26T18:20:39;99823.78;;;13.18;48.89
30463;BME280;17256;43.618;25.336;2023-03-26T18:23:25;99820.19;;;13.18;48.78
30463;BME280;17256;43.618;25.336;2023-03-26T18:25:58;100014.88;;;14.32;48.62
30463;BME280;17256;43.618;25.336;2023-03-26T18:28:51;99976.53;;;14.01;48.71
30463;BME280;17256;43.618;25.336;2023-03-26T18:31:25;99797.53;;;12.98;48.57
30463;BME280;17256;43.618;25.336;2023-03-26T18:33:55;99797.91;;;13.01;48.15
30463;BME280;17256;43.618;25.336;2023-03-26T18:36:25;99769.41;;;12.66;48.65
30463;BME280;17256;43.618;25.336;2023-03-26T18:38:57;99839.47;;;13.18;48.20
30463;BME280;17256;43.618;25.336;2023-03-26T18:41:28;100009.00;;;14.29;48.13
30463;BME280;17256;43.618;25.336;2023-03-26T18:44:13;100006.97;;;14.24;48.07
30463;BME280;17256;43.618;25.336;2023-03-26T18:46:39;99780.31;;;12.72;48.34
30463;BME280;17256;43.618;25.336;2023-03-26T18:49:13;99848.50;;;13.07;48.12
30463;BME280;17256;43.618;25.336;2023-03-26T18:51:43;99537.19;;;11.15;47.96
30463;BME280;17256;43.618;25.336;2023-03-26T18:54:13;99886.75;;;13.33;48.02
30463;BME280;17256;43.618;25.336;2023-03-26T18:56:53;99692.69;;;12.21;47.81
30463;BME280;17256;43.618;25.336;2023-03-26T18:59:29;99805.69;;;12.92;47.53
30463;BME280;17256;43.618;25.336;2023-03-26T19:05:23;99476.75;;;10.97;47.29
30463;BME280;17256;43.618;25.336;2023-03-26T19:07:59;99738.03;;;12.67;47.02
30463;BME280;17256;43.618;25.336;2023-03-26T19:10:51;99608.28;;;11.66;47.39
30463;BME280;17256;43.618;25.336;2023-03-26T19:13:27;99621.09;;;11.73;47.80
30463;BME280;17256;43.618;25.336;2023-03-26T19:15:56;99751.56;;;12.68;47.78
30463;BME280;17256;43.618;25.336;2023-03-26T19:18:27;99870.66;;;13.30;48.02
30463;BME280;17256;43.618;25.336;2023-03-26T19:21:05;99575.38;;;11.42;47.70
30463;BME280;17256;43.618;25.336;2023-03-26T19:24:19;99982.91;;;14.01;47.55
30463;BME280;17256;43.618;25.336;2023-03-26T19:26:50;99976.78;;;13.99;47.92
30463;BME280;17256;43.618;25.336;2023-03-26T19:29:45;99673.69;;;12.01;47.80
30463;BME280;17256;43.618;25.336;2023-03-26T19:32:30;99694.00;;;12.18;47.97
30463;BME280;17256;43.618;25.336;2023-03-26T19:34:58;99839.75;;;13.10;48.23
30463;BME280;17256;43.618;25.336;2023-03-26T19:37:28;99564.63;;;11.22;48.41
30463;BME280;17256;43.618;25.336;2023-03-26T19:40:12;99749.41;;;12.40;48.34
30463;BME280;17256;43.618;25.336;2023-03-26T19:42:38;99816.41;;;12.82;48.40
30463;BME280;17256;43.618;25.336;2023-03-26T19:45:16;99528.28;;;11.01;48.12
30463;BME280;17256;43.618;25.336;2023-03-26T19:48:08;99795.78;;;12.73;48.43
30463;BME280;17256;43.618;25.336;2023-03-26T19:50:40;99872.16;;;13.14;48.86
30463;BME280;17256;43.618;25.336;2023-03-26T19:53:35;99544.81;;;11.13;48.68
30463;BME280;17256;43.618;25.336;2023-03-26T20:01:38;99955.28;;;13.48;49.47
30463;BME280;17256;43.618;25.336;2023-03-26T20:08:15;99572.38;;;11.06;49.04
30463;BME280;17256;43.618;25.336;2023-03-26T20:10:56;99857.44;;;12.72;49.26
30463;BME280;17256;43.618;25.336;2023-03-26T20:13:45;99960.28;;;13.39;48.78
30463;BME280;17256;43.618;25.336;2023-03-26T20:19:46;99503.84;;;10.75;48.42
30463;BME280;17256;43.618;25.336;2023-03-26T20:22:14;99822.88;;;12.58;48.32
30463;BME280;17256;43.618;25.336;2023-03-26T20:24:43;99781.28;;;12.29;48.49
30463;BME280;17256;43.618;25.336;2023-03-26T20:27:12;99899.94;;;13.13;48.51
30463;BME280;17256;43.618;25.336;2023-03-26T20:29:39;99545.28;;;10.92;49.00
30463;BME280;17256;43.618;25.336;2023-03-26T20:32:21;99796.88;;;12.54;49.02
30463;BME280;17256;43.618;25.336;2023-03-26T20:34:48;99773.50;;;12.26;48.82
30463;BME280;17256;43.618;25.336;2023-03-26T20:37:15;99612.25;;;11.34;48.98
30463;BME280;17256;43.618;25.336;2023-03-26T20:39:41;99897.69;;;12.91;49.41
30463;BME280;17256;43.618;25.336;2023-03-26T20:42:08;99827.72;;;12.44;49.69
30463;BME280;17256;43.618;25.336;2023-03-26T20:44:42;99481.75;;;10.45;50.41
30463;BME280;17256;43.618;25.336;2023-03-26T20:48:32;99937.19;;;13.22;51.45
30463;BME280;17256;43.618;25.336;2023-03-26T20:52:36;99935.72;;;12.83;52.92
30463;BME280;17256;43.618;25.336;2023-03-26T20:56:44;99910.31;;;12.81;52.80
30463;BME280;17256;43.618;25.336;2023-03-26T21:00:15;99692.91;;;11.46;52.39
30463;BME280;17256;43.618;25.336;2023-03-26T21:02:56;99440.91;;;9.80;51.91
30463;BME280;17256;43.618;25.336;2023-03-26T21:05:24;99843.25;;;12.20;52.50
30463;BME280;17256;43.618;25.336;2023-03-26T21:08:00;99468.13;;;10.07;52.31
30463;BME280;17256;43.618;25.336;2023-03-26T21:10:36;99720.22;;;11.84;52.47
30463;BME280;17256;43.618;25.336;2023-03-26T21:16:31;99672.03;;;11.38;52.07
30463;BME280;17256;43.618;25.336;2023-03-26T21:19:13;99866.41;;;12.68;51.65
30463;BME280;17256;43.618;25.336;2023-03-26T21:21:54;99896.44;;;12.87;51.76
30463;BME280;17256;43.618;25.336;2023-03-26T21:24:48;99904.56;;;13.01;51.23
30463;BME280;17256;43.618;25.336;2023-03-26T21:30:20;99733.28;;;12.07;51.19
30463;BME280;17256;43.618;25.336;2023-03-26T21:32:47;99467.97;;;10.52;50.86
30463;BME280;17256;43.618;25.336;2023-03-26T21:35:17;99664.41;;;11.77;51.32
30463;BME280;17256;43.618;25.336;2023-03-26T21:37:49;99791.47;;;12.47;51.38
30463;BME280;17256;43.618;25.336;2023-03-26T21:40:49;99886.25;;;13.06;51.56
30463;BME280;17256;43.618;25.336;2023-03-26T21:49:39;99566.34;;;10.98;51.55
30463;BME280;17256;43.618;25.336;2023-03-26T21:52:22;99409.16;;;9.91;51.85
30463;BME280;17256;43.618;25.336;2023-03-26T22:07:58;99574.19;;;11.13;51.70
30463;BME280;17256;43.618;25.336;2023-03-26T22:10:27;99838.59;;;12.87;52.08
30463;BME280;17256;43.618;25.336;2023-03-26T22:12:55;99629.44;;;11.66;51.39
30463;BME280;17256;43.618;25.336;2023-03-26T22:30:45;99325.44;;;9.88;51.68
30463;BME280;17256;43.618;25.336;2023-03-26T22:41:34;99801.56;;;12.83;51.78
30463;BME280;17256;43.618;25.336;2023-03-26T22:52:26;99784.66;;;12.80;51.50
30463;BME280;17256;43.618;25.336;2023-03-26T23:00:28;99763.78;;;12.72;51.46
30463;BME280;17256;43.618;25.336;2023-03-26T23:07:34;99760.09;;;12.78;51.36
30463;BME280;17256;43.618;25.336;2023-03-26T23:14:13;99640.94;;;12.11;51.08
30463;BME280;17256;43.618;25.336;2023-03-26T23:17:28;99317.25;;;10.07;51.64
30463;BME280;17256;43.618;25.336;2023-03-26T23:20:16;99542.06;;;11.31;52.15
30463;BME280;17256;43.618;25.336;2023-03-26T23:23:37;99746.59;;;12.58;52.50
30463;BME280;17256;43.618;25.336;2023-03-26T23:27:00;99748.38;;;12.53;52.94
30463;BME280;17256;43.618;25.336;2023-03-26T23:31:20;99766.38;;;12.37;53.44
30463;BME280;17256;43.618;25.336;2023-03-26T23:35:08;99458.50;;;10.47;53.49
30463;BME280;17256;43.618;25.336;2023-03-26T23:38:39;99738.03;;;12.18;53.95
30463;BME280;17256;43.618;25.336;2023-03-26T23:50:06;99433.66;;;10.42;53.84
30463;BME280;17256;43.618;25.336;2023-03-26T23:56:13;99711.13;;;12.02;54.48
30463;BME280;17256;43.618;25.336;2023-03-26T23:59:21;99584.34;;;11.12;54.58
